createdAt,value
2019-03-21T00:01:38.513Z,5.80
2019-03-21T00:04:13.130Z,5.80
2019-03-21T00:06:44.652Z,5.90
2019-03-21T00:09:17.797Z,5.90
2019-03-21T00:12:09.201Z,5.80
2019-03-21T00:15:03.465Z,5.80
2019-03-21T00:17:40.921Z,5.70
2019-03-21T00:20:14.661Z,5.70
2019-03-21T00:22:47.122Z,5.60
2019-03-21T00:25:21.009Z,5.50
2019-03-21T00:27:52.436Z,5.50
2019-03-21T00:30:24.520Z,5.50
2019-03-21T00:32:56.093Z,5.60
2019-03-21T00:35:27.519Z,5.50
2019-03-21T00:37:58.952Z,5.40
2019-03-21T00:40:33.063Z,5.40
2019-03-21T00:43:05.810Z,5.30
2019-03-21T00:45:37.197Z,5.20
2019-03-21T00:48:10.945Z,5.20
2019-03-21T00:50:42.635Z,5.20
2019-03-21T00:53:14.017Z,5.20
2019-03-21T00:55:46.445Z,5.20
2019-03-21T00:58:17.820Z,5.20
2019-03-21T01:00:51.385Z,5.20
2019-03-21T01:03:22.818Z,5.30
2019-03-21T01:05:55.304Z,5.20
2019-03-21T01:08:26.742Z,5.10
2019-03-21T01:10:58.200Z,5.10
2019-03-21T01:13:32.833Z,5.10
2019-03-21T01:16:04.372Z,5.00
2019-03-21T01:18:36.349Z,5.00
2019-03-21T01:21:07.879Z,5.00
2019-03-21T01:23:39.302Z,5.00
2019-03-21T01:26:10.822Z,5.00
2019-03-21T01:28:42.187Z,4.90
2019-03-21T01:31:14.720Z,4.90
2019-03-21T01:33:46.145Z,4.90
2019-03-21T01:36:18.439Z,4.90
2019-03-21T01:38:49.836Z,4.80
2019-03-21T01:41:23.445Z,4.80
2019-03-21T01:43:56.590Z,4.80
2019-03-21T01:46:53.197Z,4.80
2019-03-21T01:49:27.374Z,4.80
2019-03-21T01:51:58.992Z,4.80
2019-03-21T01:54:30.860Z,4.90
2019-03-21T01:57:03.952Z,4.90
2019-03-21T01:59:40.265Z,4.90
2019-03-21T02:02:11.717Z,4.90
2019-03-21T02:04:43.156Z,4.80
2019-03-21T02:07:15.247Z,4.80
2019-03-21T02:09:46.672Z,4.80
2019-03-21T02:12:18.111Z,4.80
2019-03-21T02:14:52.446Z,4.70
2019-03-21T02:17:22.736Z,4.70
2019-03-21T02:20:00.983Z,4.70
2019-03-21T02:22:32.433Z,4.70
2019-03-21T02:25:03.855Z,4.70
2019-03-21T02:27:35.317Z,4.70
2019-03-21T02:30:09.618Z,4.70
2019-03-21T02:32:41.164Z,4.60
2019-03-21T02:35:12.591Z,4.60
2019-03-21T02:37:44.042Z,4.60
2019-03-21T02:40:17.505Z,4.60
2019-03-21T02:42:49.387Z,4.70
2019-03-21T02:45:20.763Z,4.70
2019-03-21T02:47:53.136Z,4.70
2019-03-21T02:50:27.313Z,4.70
2019-03-21T02:52:58.701Z,4.70
2019-03-21T02:55:30.134Z,4.80
2019-03-21T02:58:01.744Z,4.70
2019-03-21T03:00:34.758Z,4.70
2019-03-21T03:03:06.525Z,4.70
2019-03-21T03:05:38.112Z,4.70
2019-03-21T03:08:09.507Z,4.70
2019-03-21T03:10:43.658Z,4.70
2019-03-21T03:13:15.049Z,4.70
2019-03-21T03:15:46.441Z,4.70
2019-03-21T03:18:17.834Z,4.70
2019-03-21T03:20:49.249Z,4.70
2019-03-21T03:23:20.823Z,4.70
2019-03-21T03:25:52.182Z,4.80
2019-03-21T03:28:25.204Z,4.80
2019-03-21T03:30:57.271Z,4.80
2019-03-21T03:33:29.320Z,4.80
2019-03-21T03:36:01.974Z,4.70
2019-03-21T03:38:33.474Z,4.70
2019-03-21T03:41:05.083Z,4.70
2019-03-21T03:43:36.452Z,4.70
2019-03-21T03:46:07.932Z,4.70
2019-03-21T03:48:39.353Z,4.70
2019-03-21T03:51:10.789Z,4.70
2019-03-21T03:53:42.731Z,4.80
2019-03-21T03:56:14.295Z,4.80
2019-03-21T03:58:46.995Z,4.80
2019-03-21T04:01:18.453Z,4.80
2019-03-21T04:03:49.953Z,4.80
2019-03-21T04:06:21.611Z,4.80
2019-03-21T04:08:53.132Z,4.80
2019-03-21T04:11:24.771Z,4.80
2019-03-21T04:13:56.139Z,4.80
2019-03-21T04:16:27.615Z,4.80
2019-03-21T04:19:00.134Z,4.80
2019-03-21T04:21:31.559Z,4.80
2019-03-21T04:24:02.966Z,4.80
2019-03-21T04:26:34.426Z,4.80
2019-03-21T04:29:06.809Z,4.80
2019-03-21T04:31:38.204Z,4.80
2019-03-21T04:34:10.299Z,4.80
2019-03-21T04:36:41.829Z,4.80
2019-03-21T04:39:13.280Z,4.80
2019-03-21T04:41:45.254Z,4.80
2019-03-21T04:44:16.915Z,4.80
2019-03-21T04:46:49.307Z,4.90
2019-03-21T04:49:34.318Z,4.80
2019-03-21T04:52:05.784Z,4.80
2019-03-21T04:54:37.257Z,4.90
2019-03-21T04:57:08.667Z,4.90
2019-03-21T04:59:40.087Z,4.90
2019-03-21T05:02:11.433Z,4.90
2019-03-21T05:04:42.821Z,4.90
2019-03-21T05:07:14.194Z,5.00
2019-03-21T05:09:45.592Z,5.10
2019-03-21T05:12:16.994Z,5.10
2019-03-21T05:14:48.371Z,5.20
2019-03-21T05:17:20.762Z,5.30
2019-03-21T05:19:52.263Z,5.30
2019-03-21T05:22:23.645Z,5.40
2019-03-21T05:24:55.008Z,5.40
2019-03-21T05:27:26.398Z,5.40
2019-03-21T05:29:57.956Z,5.40
2019-03-21T05:32:29.345Z,5.30
2019-03-21T05:35:00.733Z,5.30
2019-03-21T05:37:32.146Z,5.40
2019-03-21T05:40:03.694Z,5.40
2019-03-21T05:42:35.201Z,5.50
2019-03-21T05:45:07.467Z,5.50
2019-03-21T05:47:38.937Z,5.50
2019-03-21T05:50:11.628Z,5.60
2019-03-21T05:52:43.144Z,5.60
2019-03-21T05:55:14.706Z,5.70
2019-03-21T05:57:46.320Z,5.80
2019-03-21T06:00:24.368Z,5.80
2019-03-21T06:02:55.740Z,5.90
2019-03-21T06:05:27.292Z,6.00
2019-03-21T06:08:15.644Z,6.10
2019-03-21T06:10:48.116Z,6.20
2019-03-21T06:13:19.520Z,6.30
2019-03-21T06:15:50.873Z,6.20
2019-03-21T06:19:05.153Z,6.30
2019-03-21T06:21:50.394Z,6.30
2019-03-21T06:25:00.902Z,6.40
2019-03-21T06:27:32.580Z,6.40
2019-03-21T06:30:04.276Z,6.40
2019-03-21T06:32:35.657Z,6.40
2019-03-21T06:35:27.440Z,6.50
2019-03-21T06:37:58.801Z,6.50
2019-03-21T06:40:30.286Z,6.50
2019-03-21T06:43:01.667Z,6.60
2019-03-21T06:45:33.097Z,6.70
2019-03-21T06:48:04.588Z,6.80
2019-03-21T06:50:35.944Z,6.80
2019-03-21T06:53:08.409Z,6.90
2019-03-21T06:55:39.840Z,6.90
2019-03-21T06:58:11.211Z,7.00
2019-03-21T07:00:42.666Z,7.10
2019-03-21T07:03:16.280Z,7.20
2019-03-21T07:05:47.062Z,7.40
2019-03-21T07:08:18.410Z,7.50
2019-03-21T07:10:49.791Z,7.70
2019-03-21T07:13:21.160Z,7.60
2019-03-21T07:15:52.634Z,7.70
2019-03-21T07:18:29.616Z,7.80
2019-03-21T07:21:02.625Z,7.80
2019-03-21T07:23:35.327Z,7.80
2019-03-21T07:26:08.922Z,7.80
2019-03-21T07:28:41.470Z,7.80
2019-03-21T07:31:14.105Z,7.70
2019-03-21T07:33:45.552Z,7.60
2019-03-21T07:36:16.954Z,7.60
2019-03-21T07:38:48.377Z,7.70
2019-03-21T07:41:19.792Z,7.70
2019-03-21T07:43:51.193Z,7.70
2019-03-21T07:46:22.702Z,7.80
2019-03-21T07:48:54.076Z,7.80
2019-03-21T07:51:25.635Z,7.80
2019-03-21T07:53:56.999Z,7.70
2019-03-21T07:56:28.380Z,7.80
2019-03-21T07:58:59.780Z,7.90
2019-03-21T08:01:31.282Z,7.90
2019-03-21T08:04:03.202Z,7.90
2019-03-21T08:06:34.948Z,8.00
2019-03-21T08:09:08.204Z,8.00
2019-03-21T08:11:39.616Z,7.90
2019-03-21T08:14:10.996Z,7.90
2019-03-21T08:16:42.413Z,8.00
2019-03-21T08:19:14.992Z,8.00
2019-03-21T08:21:46.391Z,8.00
2019-03-21T08:24:17.856Z,8.10
2019-03-21T08:26:49.268Z,8.10
2019-03-21T08:29:20.643Z,8.10
2019-03-21T08:31:52.077Z,8.20
2019-03-21T08:34:23.477Z,8.20
2019-03-21T08:36:54.897Z,8.20
2019-03-21T08:39:27.283Z,8.20
2019-03-21T08:41:59.019Z,8.30
2019-03-21T08:44:30.427Z,8.30
2019-03-21T08:47:01.814Z,8.40
2019-03-21T08:49:33.167Z,8.50
2019-03-21T08:52:04.748Z,8.50
2019-03-21T08:54:37.173Z,8.60
2019-03-21T08:57:08.541Z,8.50
2019-03-21T08:59:39.909Z,8.70
2019-03-21T09:02:11.332Z,8.80
2019-03-21T09:04:42.708Z,8.90
2019-03-21T09:07:14.089Z,9.10
2019-03-21T09:09:45.460Z,9.20
2019-03-21T09:12:16.848Z,9.30
2019-03-21T09:14:48.254Z,9.30
2019-03-21T09:17:19.644Z,9.40
2019-03-21T09:19:51.032Z,9.50
2019-03-21T09:22:22.448Z,9.50
2019-03-21T09:24:53.841Z,9.60
2019-03-21T09:27:25.242Z,9.80
2019-03-21T09:29:56.712Z,9.80
2019-03-21T09:32:28.077Z,9.90
2019-03-21T09:34:59.437Z,9.90
2019-03-21T09:37:30.832Z,9.80
2019-03-21T09:40:02.211Z,9.80
2019-03-21T09:42:33.584Z,9.80
2019-03-21T09:45:05.724Z,9.80
2019-03-21T09:47:37.139Z,9.80
2019-03-21T09:50:09.063Z,9.70
2019-03-21T09:52:40.445Z,9.70
2019-03-21T09:55:12.021Z,9.70
2019-03-21T09:57:43.418Z,9.80
2019-03-21T10:00:18.594Z,9.80
2019-03-21T10:02:49.981Z,9.90
2019-03-21T10:05:21.336Z,10.00
2019-03-21T10:07:52.756Z,10.00
2019-03-21T10:10:29.384Z,10.00
2019-03-21T10:13:00.929Z,10.10
2019-03-21T10:15:32.315Z,10.20
2019-03-21T10:18:05.118Z,10.30
2019-03-21T10:20:36.528Z,10.40
2019-03-21T10:23:08.024Z,10.40
2019-03-21T10:25:39.522Z,10.50
2019-03-21T10:28:10.889Z,10.50
2019-03-21T10:30:43.234Z,10.60
2019-03-21T10:33:15.558Z,10.60
2019-03-21T10:35:47.029Z,10.70
2019-03-21T10:38:18.438Z,10.80
2019-03-21T10:40:50.852Z,10.80
2019-03-21T10:43:22.304Z,10.90
2019-03-21T10:45:53.761Z,10.80
2019-03-21T10:48:25.216Z,10.80
2019-03-21T10:50:56.657Z,10.80
2019-03-21T10:53:28.063Z,10.80
2019-03-21T10:55:59.447Z,10.90
2019-03-21T10:58:30.848Z,11.00
2019-03-21T11:01:02.375Z,10.90
2019-03-21T11:03:33.777Z,11.00
2019-03-21T11:06:05.214Z,11.10
2019-03-21T11:08:36.660Z,11.00
2019-03-21T11:11:08.132Z,10.90
2019-03-21T11:13:39.519Z,10.80
2019-03-21T11:16:11.248Z,10.70
2019-03-21T11:18:42.639Z,10.70
2019-03-21T11:21:14.044Z,10.70
2019-03-21T11:23:45.450Z,10.70
2019-03-21T11:26:16.866Z,10.60
2019-03-21T11:28:48.298Z,10.60
2019-03-21T11:31:19.734Z,10.60
2019-03-21T11:33:51.145Z,10.70
2019-03-21T11:36:22.545Z,10.70
2019-03-21T11:38:53.967Z,10.70
2019-03-21T11:41:25.341Z,10.70
2019-03-21T11:43:56.766Z,10.70
2019-03-21T11:46:28.191Z,10.60
2019-03-21T11:48:59.641Z,10.60
2019-03-21T11:51:31.049Z,10.60
2019-03-21T11:54:02.457Z,10.70
2019-03-21T11:56:33.857Z,10.60
2019-03-21T11:59:05.356Z,10.60
2019-03-21T12:01:36.849Z,10.50
2019-03-21T12:04:08.275Z,10.50
2019-03-21T12:06:39.705Z,10.40
2019-03-21T12:09:11.229Z,10.30
2019-03-21T12:11:42.650Z,10.20
2019-03-21T12:14:14.098Z,10.20
2019-03-21T12:16:45.494Z,10.10
2019-03-21T12:19:17.958Z,10.10
2019-03-21T12:21:49.325Z,10.10
2019-03-21T12:24:20.724Z,10.00
2019-03-21T12:26:53.226Z,10.10
2019-03-21T12:29:24.646Z,10.00
2019-03-21T12:31:56.026Z,10.00
2019-03-21T12:34:27.425Z,10.00
2019-03-21T12:37:02.552Z,9.90
2019-03-21T12:39:33.953Z,9.80
2019-03-21T12:42:05.402Z,9.70
2019-03-21T12:44:36.799Z,9.70
2019-03-21T12:47:08.213Z,9.60
2019-03-21T12:49:39.656Z,9.60
2019-03-21T12:52:11.063Z,9.60
2019-03-21T12:54:42.484Z,9.60
2019-03-21T12:57:13.864Z,9.50
2019-03-21T12:59:45.316Z,9.40
2019-03-21T13:02:16.811Z,9.40
2019-03-21T13:04:48.276Z,9.40
2019-03-21T13:07:19.947Z,9.50
2019-03-21T13:09:51.686Z,9.40
2019-03-21T13:12:23.080Z,9.40
2019-03-21T13:14:55.493Z,9.40
2019-03-21T13:17:27.001Z,9.40
2019-03-21T13:19:58.625Z,9.40
2019-03-21T13:22:30.057Z,9.40
2019-03-21T13:25:01.461Z,9.40
2019-03-21T13:27:33.106Z,9.30
2019-03-21T13:30:04.777Z,9.30
2019-03-21T13:32:36.163Z,9.20
2019-03-21T13:35:08.085Z,9.20
2019-03-21T13:37:39.523Z,9.10
2019-03-21T13:40:11.282Z,9.10
2019-03-21T13:42:42.676Z,9.20
2019-03-21T13:45:14.328Z,9.10
2019-03-21T13:47:45.734Z,9.10
2019-03-21T13:50:17.225Z,9.10
2019-03-21T13:52:48.798Z,9.10
2019-03-21T13:55:20.194Z,9.10
2019-03-21T13:57:58.870Z,9.10
2019-03-21T14:00:30.308Z,9.00
2019-03-21T14:03:02.247Z,9.00
2019-03-21T14:05:39.231Z,9.00
2019-03-21T14:08:20.928Z,9.00
2019-03-21T14:11:10.349Z,9.00
2019-03-21T14:13:51.960Z,8.90
2019-03-21T14:16:24.088Z,8.90
2019-03-21T14:18:55.524Z,8.90
2019-03-21T14:21:26.917Z,8.90
2019-03-21T14:23:58.464Z,9.00
2019-03-21T14:26:30.877Z,8.90
2019-03-21T14:29:12.210Z,8.90
2019-03-21T14:31:35.286Z,8.90
2019-03-21T14:34:06.944Z,9.00
2019-03-21T14:37:34.345Z,9.10
2019-03-21T14:39:25.291Z,9.10
2019-03-21T14:41:56.986Z,9.20
2019-03-21T14:44:28.686Z,9.10
2019-03-21T14:47:00.188Z,9.10
2019-03-21T14:49:32.685Z,9.00
2019-03-21T14:52:05.484Z,9.00
2019-03-21T14:54:36.941Z,9.00
2019-03-21T14:57:08.496Z,9.00
2019-03-21T14:59:39.923Z,9.00
2019-03-21T15:02:11.296Z,8.90
2019-03-21T15:04:42.673Z,8.90
2019-03-21T15:07:14.078Z,8.90
2019-03-21T15:09:45.464Z,8.90
2019-03-21T15:12:16.940Z,9.00
2019-03-21T15:14:49.981Z,8.90
2019-03-21T15:17:21.561Z,9.00
2019-03-21T15:19:52.958Z,9.00
2019-03-21T15:22:24.394Z,9.00
2019-03-21T15:24:55.805Z,9.00
2019-03-21T15:27:27.212Z,9.00
2019-03-21T15:29:58.598Z,9.00
2019-03-21T15:32:30.017Z,9.00
2019-03-21T15:35:01.558Z,9.00
2019-03-21T15:37:33.113Z,9.00
2019-03-21T15:40:05.345Z,9.00
2019-03-21T15:42:39.089Z,8.90
2019-03-21T15:45:22.242Z,8.90
2019-03-21T15:47:46.073Z,8.90
2019-03-21T15:50:31.587Z,9.00
2019-03-21T15:53:04.375Z,9.00
2019-03-21T15:55:35.800Z,8.90
2019-03-21T15:58:08.363Z,8.90
2019-03-21T16:00:41.194Z,8.90
2019-03-21T16:03:13.365Z,8.90
2019-03-21T16:05:44.876Z,9.00
2019-03-21T16:08:16.357Z,9.00
2019-03-21T16:10:47.748Z,9.00
2019-03-21T16:13:19.138Z,9.10
2019-03-21T16:15:50.550Z,9.10
2019-03-21T16:18:21.932Z,9.00
2019-03-21T16:20:53.443Z,9.00
2019-03-21T16:23:24.820Z,9.00
2019-03-21T16:25:56.270Z,8.90
2019-03-21T16:28:27.646Z,8.90
2019-03-21T16:30:59.021Z,8.90
2019-03-21T16:33:30.539Z,9.00
2019-03-21T16:36:01.985Z,9.00
2019-03-21T16:38:33.398Z,9.00
2019-03-21T16:41:05.363Z,9.00
2019-03-21T16:43:36.757Z,9.10
2019-03-21T16:46:08.230Z,9.10
2019-03-21T16:48:39.597Z,9.10
2019-03-21T16:51:11.016Z,9.10
2019-03-21T16:53:43.856Z,9.10
2019-03-21T16:56:15.476Z,9.10
2019-03-21T16:58:46.962Z,9.10
2019-03-21T17:01:18.664Z,9.20
2019-03-21T17:03:50.384Z,9.20
2019-03-21T17:06:22.022Z,9.20
2019-03-21T17:08:53.506Z,9.20
2019-03-21T17:11:25.307Z,9.20
2019-03-21T17:13:56.766Z,9.30
2019-03-21T17:16:28.249Z,9.30
2019-03-21T17:18:59.698Z,9.20
2019-03-21T17:21:31.116Z,9.20
2019-03-21T17:24:02.542Z,9.20
2019-03-21T17:26:33.937Z,9.20
2019-03-21T17:29:08.058Z,9.20
2019-03-21T17:31:39.841Z,9.10
2019-03-21T17:34:11.312Z,9.10
2019-03-21T17:36:42.680Z,9.10
2019-03-21T17:39:14.085Z,9.00
2019-03-21T17:41:45.489Z,9.00
2019-03-21T17:44:16.973Z,9.00
2019-03-21T17:46:48.379Z,9.00
2019-03-21T17:49:19.769Z,9.00
2019-03-21T17:51:51.298Z,9.00
2019-03-21T17:54:22.718Z,9.10
2019-03-21T17:56:54.174Z,9.10
2019-03-21T17:59:25.542Z,9.00
2019-03-21T18:01:57.048Z,9.00
2019-03-21T18:04:28.611Z,9.00
2019-03-21T18:06:59.984Z,9.00
2019-03-21T18:09:31.381Z,9.00
2019-03-21T18:12:02.769Z,9.00
2019-03-21T18:14:34.220Z,9.00
2019-03-21T18:17:05.698Z,9.00
2019-03-21T18:19:37.065Z,9.00
2019-03-21T18:22:08.717Z,9.00
2019-03-21T18:24:40.124Z,8.90
2019-03-21T18:27:11.587Z,8.90
2019-03-21T18:29:42.999Z,9.00
2019-03-21T18:32:15.471Z,9.00
2019-03-21T18:34:47.797Z,9.00
2019-03-21T18:37:20.005Z,9.10
2019-03-21T18:39:51.416Z,9.00
2019-03-21T18:42:22.833Z,9.00
2019-03-21T18:44:54.234Z,9.00
2019-03-21T18:47:25.883Z,9.00
2019-03-21T18:49:57.285Z,9.00
2019-03-21T18:52:29.137Z,9.10
2019-03-21T18:55:06.453Z,9.10
2019-03-21T18:57:34.567Z,9.00
2019-03-21T19:00:07.108Z,9.00
2019-03-21T19:02:41.057Z,9.00
2019-03-21T19:05:12.641Z,9.00
2019-03-21T19:07:44.006Z,9.00
2019-03-21T19:10:16.130Z,9.00
2019-03-21T19:12:47.638Z,9.00
2019-03-21T19:15:20.620Z,9.00
2019-03-21T19:17:58.981Z,9.00
2019-03-21T19:20:30.772Z,9.00
2019-03-21T19:23:02.540Z,9.00
2019-03-21T19:25:33.939Z,8.90
2019-03-21T19:28:05.583Z,9.00
2019-03-21T19:30:36.999Z,9.00
2019-03-21T19:33:08.424Z,9.00
2019-03-21T19:35:39.956Z,9.00
2019-03-21T19:38:11.373Z,9.00
2019-03-21T19:40:42.812Z,9.00
2019-03-21T19:43:16.455Z,8.90
2019-03-21T19:45:47.877Z,8.90
2019-03-21T19:48:19.296Z,8.90
2019-03-21T19:50:51.102Z,8.90
2019-03-21T19:53:23.552Z,8.90
2019-03-21T19:55:59.494Z,9.00
2019-03-21T19:58:28.721Z,9.00
2019-03-21T20:01:00.272Z,9.00
2019-03-21T20:03:33.298Z,9.10
2019-03-21T20:06:05.214Z,9.00
2019-03-21T20:08:36.736Z,9.00
2019-03-21T20:11:08.693Z,9.10
2019-03-21T20:13:40.088Z,9.10
2019-03-21T20:16:11.568Z,9.10
2019-03-21T20:18:43.454Z,9.10
2019-03-21T20:21:15.307Z,9.10
2019-03-21T20:23:46.984Z,9.10
2019-03-21T20:26:18.582Z,9.00
2019-03-21T20:28:49.980Z,9.10
2019-03-21T20:31:21.608Z,9.10
2019-03-21T20:33:54.206Z,9.10
2019-03-21T20:36:25.646Z,9.20
2019-03-21T20:38:57.565Z,9.10
2019-03-21T20:41:29.062Z,9.10
2019-03-21T20:44:01.517Z,9.00
2019-03-21T20:46:33.128Z,9.00
2019-03-21T20:49:05.061Z,9.00
2019-03-21T20:51:36.462Z,9.00
2019-03-21T20:54:07.910Z,9.00
2019-03-21T20:56:39.388Z,9.10
2019-03-21T20:59:11.358Z,9.10
2019-03-21T21:01:45.322Z,9.10
2019-03-21T21:04:18.680Z,9.00
2019-03-21T21:06:50.242Z,9.00
2019-03-21T21:09:22.529Z,9.00
2019-03-21T21:11:55.356Z,9.00
2019-03-21T21:14:30.530Z,9.00
2019-03-21T21:17:01.956Z,9.00
2019-03-21T21:19:33.368Z,9.00
2019-03-21T21:22:06.058Z,9.00
2019-03-21T21:24:37.548Z,9.00
2019-03-21T21:27:09.049Z,9.00
2019-03-21T21:29:42.946Z,9.00
2019-03-21T21:32:13.618Z,8.90
2019-03-21T21:34:45.510Z,8.90
2019-03-21T21:37:16.967Z,9.00
2019-03-21T21:39:57.885Z,8.90
2019-03-21T21:42:29.353Z,8.90
2019-03-21T21:45:00.825Z,8.90
2019-03-21T21:47:32.273Z,8.90
2019-03-21T21:50:05.686Z,8.90
2019-03-21T21:52:42.189Z,9.00
2019-03-21T21:55:11.849Z,9.00
2019-03-21T21:57:43.321Z,8.90
2019-03-21T22:00:16.217Z,8.90
2019-03-21T22:02:47.620Z,8.90
2019-03-21T22:05:19.756Z,8.90
2019-03-21T22:07:51.156Z,8.90
2019-03-21T22:10:22.603Z,8.90
2019-03-21T22:12:54.024Z,8.90
2019-03-21T22:15:25.440Z,8.90
2019-03-21T22:17:56.912Z,8.90
2019-03-21T22:20:28.306Z,8.90
2019-03-21T22:23:00.859Z,8.90
2019-03-21T22:25:43.644Z,8.90
2019-03-21T22:28:15.134Z,8.90
2019-03-21T22:30:46.645Z,8.90
2019-03-21T22:33:18.173Z,8.90
2019-03-21T22:35:49.630Z,8.90
2019-03-21T22:38:21.083Z,8.90
2019-03-21T22:40:52.484Z,8.90
2019-03-21T22:43:23.988Z,8.90
2019-03-21T22:45:55.416Z,8.90
2019-03-21T22:48:26.836Z,8.90
2019-03-21T22:50:58.259Z,8.90
2019-03-21T22:53:30.260Z,8.90
2019-03-21T22:56:01.801Z,8.90
2019-03-21T22:58:36.482Z,8.90
2019-03-21T23:01:08.676Z,8.90
2019-03-21T23:03:40.105Z,8.90
2019-03-21T23:06:14.239Z,8.90
2019-03-21T23:08:49.302Z,8.80
2019-03-21T23:11:24.698Z,8.80
2019-03-21T23:14:03.521Z,8.80
2019-03-21T23:16:38.638Z,8.80
2019-03-21T23:19:10.076Z,8.80
2019-03-21T23:21:41.558Z,8.80
2019-03-21T23:24:12.992Z,8.80
2019-03-21T23:26:52.932Z,8.70
2019-03-21T23:29:22.636Z,8.70
2019-03-21T23:31:54.048Z,8.60
2019-03-21T23:34:25.455Z,8.60
2019-03-21T23:36:57.116Z,8.60
2019-03-21T23:39:28.586Z,8.50
2019-03-21T23:42:00.028Z,8.50
2019-03-21T23:44:31.453Z,8.40
2019-03-21T23:47:04.627Z,8.40
2019-03-21T23:49:36.768Z,8.30
2019-03-21T23:52:08.258Z,8.30
2019-03-21T23:54:40.158Z,8.20
2019-03-21T23:57:13.388Z,8.30
2019-03-21T23:59:53.549Z,8.30
